sensor_id;sensor_type;location;lat;lon;timestamp;pressure;altitude;pressure_sealevel;temperature;humidity
30463;BME280;17256;43.618;25.336;2023-02-14T07:41:20;101596.66;;;3.38;100.00
30463;BME280;17256;43.618;25.336;2023-02-14T07:44:13;102058.72;;;6.18;100.00
30463;BME280;17256;43.618;25.336;2023-02-14T08:46:08;102066.66;;;7.02;83.87
30463;BME280;17256;43.618;25.336;2023-02-14T08:49:28;102040.53;;;7.38;84.32
30463;BME280;17256;43.618;25.336;2023-02-14T08:53:37;101734.72;;;5.53;80.34
30463;BME280;17256;43.618;25.336;2023-02-14T08:57:04;101803.50;;;5.76;81.43
30463;BME280;17256;43.618;25.336;2023-02-14T09:00:03;101617.75;;;4.71;80.02
30463;BME280;17256;43.618;25.336;2023-02-14T09:03:34;101621.75;;;5.07;77.81
30463;BME280;17256;43.618;25.336;2023-02-14T09:08:08;102040.75;;;8.02;77.58
30463;BME280;17256;43.618;25.336;2023-02-14T09:15:22;102043.84;;;8.27;74.63
30463;BME280;17256;43.618;25.336;2023-02-14T09:19:00;101562.88;;;5.25;73.57
30463;BME280;17256;43.618;25.336;2023-02-14T09:27:03;101611.81;;;5.46;71.22
30463;BME280;17256;43.618;25.336;2023-02-14T09:30:38;101669.50;;;5.71;70.44
30463;BME280;17256;43.618;25.336;2023-02-14T09:34:40;102051.22;;;8.17;69.44
30463;BME280;17256;43.618;25.336;2023-02-14T09:38:25;101800.47;;;6.48;69.68
30463;BME280;17256;43.618;25.336;2023-02-14T09:45:55;101749.31;;;6.40;70.32
30463;BME280;17256;43.618;25.336;2023-02-14T09:49:44;102061.75;;;8.21;71.35
30463;BME280;17256;43.618;25.336;2023-02-14T10:16:33;101635.88;;;6.38;72.22
30463;BME280;17256;43.618;25.336;2023-02-14T10:22:37;101796.88;;;7.33;71.99
30463;BME280;17256;43.618;25.336;2023-02-14T10:25:18;101795.50;;;7.19;72.04
30463;BME280;17256;43.618;25.336;2023-02-14T10:27:49;101942.19;;;8.22;72.36
30463;BME280;17256;43.618;25.336;2023-02-14T10:30:21;101613.81;;;6.68;73.25
30463;BME280;17256;43.618;25.336;2023-02-14T10:33:16;101625.09;;;6.83;70.55
30463;BME280;17256;43.618;25.336;2023-02-14T10:35:54;101781.34;;;7.61;70.92
30463;BME280;17256;43.618;25.336;2023-02-14T10:39:08;101775.38;;;7.75;70.67
30463;BME280;17256;43.618;25.336;2023-02-14T10:42:20;102016.59;;;9.17;70.61
30463;BME280;17256;43.618;25.336;2023-02-14T10:45:25;101869.44;;;8.47;69.50
30463;BME280;17256;43.618;25.336;2023-02-14T10:48:19;102014.38;;;9.39;70.34
30463;BME280;17256;43.618;25.336;2023-02-14T10:51:30;101691.34;;;7.22;70.00
30463;BME280;17256;43.618;25.336;2023-02-14T11:00:06;101993.06;;;9.33;70.54
30463;BME280;17256;43.618;25.336;2023-02-14T11:02:40;101799.34;;;8.09;70.40
30463;BME280;17256;43.618;25.336;2023-02-14T11:05:35;101574.22;;;7.09;69.78
30463;BME280;17256;43.618;25.336;2023-02-14T11:08:24;101642.03;;;7.41;69.01
30463;BME280;17256;43.618;25.336;2023-02-14T11:10:54;101579.22;;;7.14;69.98
30463;BME280;17256;43.618;25.336;2023-02-14T11:13:37;101907.00;;;9.25;69.65
30463;BME280;17256;43.618;25.336;2023-02-14T11:16:22;101619.03;;;7.62;68.62
30463;BME280;17256;43.618;25.336;2023-02-14T11:19:30;101660.72;;;8.53;67.71
30463;BME280;17256;43.618;25.336;2023-02-14T11:22:03;101766.91;;;9.11;64.67
30463;BME280;17256;43.618;25.336;2023-02-14T11:24:37;101714.13;;;8.75;63.46
30463;BME280;17256;43.618;25.336;2023-02-14T11:27:24;101744.34;;;8.91;63.07
30463;BME280;17256;43.618;25.336;2023-02-14T11:29:50;101534.06;;;7.55;62.38
30463;BME280;17256;43.618;25.336;2023-02-14T11:32:32;101907.41;;;9.56;62.52
30463;BME280;17256;43.618;25.336;2023-02-14T11:35:41;101669.75;;;8.10;63.80
30463;BME280;17256;43.618;25.336;2023-02-14T11:38:35;101819.66;;;8.87;61.59
30463;BME280;17256;43.618;25.336;2023-02-14T11:41:09;101755.13;;;8.67;61.75
30463;BME280;17256;43.618;25.336;2023-02-14T11:44:12;101721.06;;;8.43;62.05
30463;BME280;17256;43.618;25.336;2023-02-14T11:46:39;101711.44;;;8.21;61.75
30463;BME280;17256;43.618;25.336;2023-02-14T11:49:24;101558.47;;;7.03;62.38
30463;BME280;17256;43.618;25.336;2023-02-14T11:51:56;101717.72;;;7.86;60.95
30463;BME280;17256;43.618;25.336;2023-02-14T11:54:36;101807.03;;;8.50;61.97
30463;BME280;17256;43.618;25.336;2023-02-14T11:57:36;101775.56;;;8.54;61.55
30463;BME280;17256;43.618;25.336;2023-02-14T12:00:17;101506.59;;;6.76;61.48
30463;BME280;17256;43.618;25.336;2023-02-14T12:02:47;101513.50;;;6.98;62.06
30463;BME280;17256;43.618;25.336;2023-02-14T12:05:34;101936.44;;;9.93;62.13
30463;BME280;17256;43.618;25.336;2023-02-14T12:08:04;101679.84;;;8.45;61.79
30463;BME280;17256;43.618;25.336;2023-02-14T12:10:43;101679.84;;;8.45;61.32
30463;BME280;17256;43.618;25.336;2023-02-14T12:13:36;101532.66;;;7.51;61.29
30463;BME280;17256;43.618;25.336;2023-02-14T12:16:18;101704.88;;;8.76;60.96
30463;BME280;17256;43.618;25.336;2023-02-14T12:19:16;101564.09;;;7.91;60.94
30463;BME280;17256;43.618;25.336;2023-02-14T12:21:54;101492.34;;;7.35;60.77
30463;BME280;17256;43.618;25.336;2023-02-14T12:27:23;101523.34;;;7.62;60.83
30463;BME280;17256;43.618;25.336;2023-02-14T12:30:08;101540.28;;;7.65;60.64
30463;BME280;17256;43.618;25.336;2023-02-14T12:32:46;101507.91;;;7.53;60.90
30463;BME280;17256;43.618;25.336;2023-02-14T12:42:05;101646.28;;;8.43;61.65
30463;BME280;17256;43.618;25.336;2023-02-14T12:48:11;101882.91;;;9.63;61.51
30463;BME280;17256;43.618;25.336;2023-02-14T12:58:28;101486.63;;;7.64;60.92
30463;BME280;17256;43.618;25.336;2023-02-14T13:01:38;101781.78;;;9.34;61.01
30463;BME280;17256;43.618;25.336;2023-02-14T14:00:21;101828.06;;;8.68;62.87
30463;BME280;17256;43.618;25.336;2023-02-14T14:10:45;101676.06;;;7.57;64.10
30463;BME280;17256;43.618;25.336;2023-02-14T14:16:31;101840.34;;;8.46;64.56
30463;BME280;17256;43.618;25.336;2023-02-14T14:19:46;101846.75;;;8.37;64.09
30463;BME280;17256;43.618;25.336;2023-02-14T14:22:17;101704.34;;;7.65;64.23
30463;BME280;17256;43.618;25.336;2023-02-14T14:25:41;101533.84;;;6.58;64.86
30463;BME280;17256;43.618;25.336;2023-02-14T14:28:40;101650.78;;;7.27;64.67
30463;BME280;17256;43.618;25.336;2023-02-14T14:31:12;101829.09;;;8.49;64.66
30463;BME280;17256;43.618;25.336;2023-02-14T14:33:55;101567.81;;;7.01;64.99
30463;BME280;17256;43.618;25.336;2023-02-14T14:36:35;101434.78;;;6.21;64.05
30463;BME280;17256;43.618;25.336;2023-02-14T14:40:35;101583.59;;;7.07;64.32
30463;BME280;17256;43.618;25.336;2023-02-14T14:44:26;101589.28;;;6.96;64.50
30463;BME280;17256;43.618;25.336;2023-02-14T14:47:56;101404.75;;;5.93;64.64
30463;BME280;17256;43.618;25.336;2023-02-14T14:50:34;101814.44;;;8.40;64.89
30463;BME280;17256;43.618;25.336;2023-02-14T14:53:46;101631.97;;;7.24;64.73
30463;BME280;17256;43.618;25.336;2023-02-14T14:57:05;101816.84;;;8.25;65.42
30463;BME280;17256;43.618;25.336;2023-02-14T15:56:40;101519.84;;;5.10;70.59
30463;BME280;17256;43.618;25.336;2023-02-14T15:59:41;101854.19;;;6.96;71.16
30463;BME280;17256;43.618;25.336;2023-02-14T16:02:29;101859.81;;;6.94;71.56
30463;BME280;17256;43.618;25.336;2023-02-14T16:05:19;101707.84;;;5.98;71.36
30463;BME280;17256;43.618;25.336;2023-02-14T16:08:33;101859.50;;;6.97;70.97
30463;BME280;17256;43.618;25.336;2023-02-14T16:11:44;101697.91;;;5.78;71.53
30463;BME280;17256;43.618;25.336;2023-02-14T16:15:16;101558.06;;;4.79;71.60
30463;BME280;17256;43.618;25.336;2023-02-14T16:17:36;101870.16;;;6.71;72.09
30463;BME280;17256;43.618;25.336;2023-02-14T16:20:40;101483.16;;;4.35;71.57
30463;BME280;17256;43.618;25.336;2023-02-14T16:23:27;101874.03;;;6.59;71.57
30463;BME280;17256;43.618;25.336;2023-02-14T16:26:39;101720.22;;;5.62;71.96
30463;BME280;17256;43.618;25.336;2023-02-14T16:29:43;101513.50;;;4.30;72.60
30463;BME280;17256;43.618;25.336;2023-02-14T16:36:23;101471.78;;;3.90;71.78
30463;BME280;17256;43.618;25.336;2023-02-14T16:41:51;101602.75;;;4.77;72.91
30463;BME280;17256;43.618;25.336;2023-02-14T16:44:25;101504.59;;;3.98;72.97
30463;BME280;17256;43.618;25.336;2023-02-14T16:46:55;101636.69;;;4.82;73.79
30463;BME280;17256;43.618;25.336;2023-02-14T16:49:29;101717.69;;;5.20;75.45
30463;BME280;17256;43.618;25.336;2023-02-14T16:52:05;101483.81;;;3.66;76.15
30463;BME280;17256;43.618;25.336;2023-02-14T16:54:34;101900.34;;;6.10;77.12
30463;BME280;17256;43.618;25.336;2023-02-14T16:57:06;101655.63;;;4.84;76.59
30463;BME280;17256;43.618;25.336;2023-02-14T17:00:49;101876.94;;;5.98;78.95
30463;BME280;17256;43.618;25.336;2023-02-14T17:03:39;101685.97;;;4.79;82.28
30463;BME280;17256;43.618;25.336;2023-02-14T17:06:26;101904.19;;;5.98;85.97
30463;BME280;17256;43.618;25.336;2023-02-14T17:19:10;101900.47;;;5.78;100.00
30463;BME280;17256;43.618;25.336;2023-02-14T17:23:07;101903.06;;;5.80;100.00
30463;BME280;17256;43.618;25.336;2023-02-14T17:30:46;101651.19;;;4.11;100.00
30463;BME280;17256;43.618;25.336;2023-02-14T17:42:03;101596.09;;;3.56;100.00
30463;BME280;17256;43.618;25.336;2023-02-14T17:46:02;101782.00;;;4.70;100.00
30463;BME280;17256;43.618;25.336;2023-02-14T17:53:53;101534.94;;;3.08;100.00
30463;BME280;17256;43.618;25.336;2023-02-14T18:02:04;101913.84;;;5.30;100.00
30463;BME280;17256;43.618;25.336;2023-02-14T18:06:02;101920.19;;;5.40;100.00
30463;BME280;17256;43.618;25.336;2023-02-14T18:09:52;101930.38;;;5.38;100.00
30463;BME280;17256;43.618;25.336;2023-02-14T18:13:30;101934.38;;;5.34;100.00
30463;BME280;17256;43.618;25.336;2023-02-14T18:21:13;101935.50;;;5.32;100.00
30463;BME280;17256;43.618;25.336;2023-02-14T18:28:53;101682.00;;;3.68;100.00
30463;BME280;17256;43.618;25.336;2023-02-14T18:56:16;101949.03;;;5.01;100.00
30463;BME280;17256;43.618;25.336;2023-02-14T19:12:33;101948.44;;;4.98;100.00
30463;BME280;17256;43.618;25.336;2023-02-14T19:24:53;101956.63;;;4.86;100.00
30463;BME280;17256;43.618;25.336;2023-02-14T19:43:56;101948.00;;;4.81;100.00
